Terminal Aerodrome Forecast
Issued by NWS

Home | Current Version | Previous Version | Text Only | Print | Product List | Glossary On
Versions: 1 2 3 4 5 6 7 8 9 10 11 12 13 14 15 16 17
814
FTUS41 KBTV 091510 AAA
TAFRUT
TAF AMD
KRUT 091510Z 0915/1012 14010KT 6SM -SHSN BR BKN035 OVC060
      TEMPO 0915/0918 2SM -SN BR OVC025
     FM100000 VRB03KT 6SM -SN OVC030
      AMD LTD TO CLD VIS AND WIND=

USA.gov is the U.S. government's official web portal to all federal, state and local government web resources and services.